Candido Sales, Brazil
Current Conditions -  °F | °C
As of 1:00 PM on Tuesday 27 Jan 2015 (Local Time) from SBQV Reporting Station
Scattered Clouds Scattered Clouds  
Wind Chill: 84°   Ceiling: Unl
Heat Index: 86°   Visibility: 6mi
Dew Point: 66°   Wind: 7mph
Humidity: 55%   Direction: 80°E
Pressure: 30.12"   Gusts: NA
Location:  15.51°S, 41.24°W
Report Text: SBQV 271600Z 08006KT 9999 SCT025 29/19 Q1020
Loading
Personal Weather Stations






























Interactive Weather Map New forecast layout! Learn more

10-Day Weather Forecast

Advertisements
Track Severe Weather on mobile